Terminal Aerodrome Forecast
Issued by NWS Omaha/Valley, NE

Home | Current Version | Previous Version | Text Only | Print | Product List | Glossary On
Versions: 1 2 3 4 5 6 7 8 9 10 11 12 13 14 15 16 17 18 19 20
000
FTUS43 KOAX 230008 AAA
TAFOMA
TAF AMD
KOMA 230008Z 2300/2324 13015KT P6SM OVC090 WS012/16040KT
     FM231000 15009KT P6SM OVC020
     FM231600 15011G19KT 6SM -RA BR OVC010
     FM232000 16012G21KT P6SM BKN025=

USA.gov is the U.S. government's official web portal to all federal, state and local government web resources and services.